Time;durP1;ratioP1;P1;durP2;ratioP2;P2;SDS_P1;SDS_P2;PMS_P1;PMS_P2;Temp;Humidity;BMP_temperature;BMP_pressure;BME280_temperature;BME280_humidity;BME280_pressure;Samples;Min_cycle;Max_cycle;Signal;HPM_P1;HPM_P2
2022/07/24 00:00:32;;;;;;;0.10;0.10;;;23.70;87.90;;;;;;4972786;28;20035;-63
2022/07/24 00:02:58;;;;;;;0.10;0.10;;;23.60;88.60;;;;;;4973782;28;20027;-63
2022/07/24 00:05:23;;;;;;;0.40;0.40;;;23.70;87.70;;;;;;4974037;28;20505;-63
2022/07/24 00:07:49;;;;;;;0.88;0.70;;;23.60;88.40;;;;;;4973834;28;20081;-62
2022/07/24 00:10:15;;;;;;;1.75;0.75;;;23.50;88.40;;;;;;4988647;28;20035;-62
2022/07/24 00:12:40;;;;;;;1.42;0.52;;;23.40;88.30;;;;;;4973732;28;20042;-62
2022/07/24 00:15:07;;;;;;;1.23;0.77;;;23.30;88.80;;;;;;4988805;28;20031;-62
2022/07/24 00:17:33;;;;;;;0.82;0.65;;;23.20;88.90;;;;;;4973803;28;20033;-62
2022/07/24 00:19:59;;;;;;;0.30;0.30;;;23.20;90.00;;;;;;4973214;28;20039;-62
2022/07/24 00:22:24;;;;;;;0.40;0.40;;;23.20;90.20;;;;;;4973656;28;20038;-62
2022/07/24 00:24:50;;;;;;;0.73;0.70;;;23.30;90.00;;;;;;4973573;28;20037;-62
2022/07/24 00:27:16;;;;;;;0.73;0.52;;;23.30;90.10;;;;;;4972236;28;20035;-62
2022/07/24 00:29:42;;;;;;;0.10;0.00;;;23.40;89.50;;;;;;4973336;28;20030;-62
2022/07/24 00:32:08;;;;;;;0.38;0.38;;;23.50;89.60;;;;;;4973402;28;20046;-63
2022/07/24 00:34:34;;;;;;;0.45;0.45;;;23.40;89.80;;;;;;4973734;28;20493;-62
2022/07/24 00:36:59;;;;;;;0.20;0.17;;;23.40;89.60;;;;;;4972624;28;20110;-62
2022/07/24 00:39:25;;;;;;;2.45;0.73;;;23.40;89.20;;;;;;4973113;28;20030;-62
2022/07/24 00:41:54;;;;;;;0.13;0.13;;;23.40;89.50;;;;;;4973799;28;20085;-62
2022/07/24 00:44:20;;;;;;;1.02;0.80;;;23.40;89.40;;;;;;4972107;28;20046;-62
2022/07/24 00:46:47;;;;;;;4.15;1.33;;;23.40;89.60;;;;;;4973388;28;20035;-62
2022/07/24 00:49:16;;;;;;;0.15;0.15;;;23.30;90.10;;;;;;4973309;28;20394;-62
2022/07/24 00:51:45;;;;;;;0.43;0.40;;;23.40;89.80;;;;;;4973306;28;20056;-62
2022/07/24 00:54:13;;;;;;;0.60;0.57;;;23.30;89.80;;;;;;4972735;28;20402;-62
2022/07/24 00:56:42;;;;;;;1.30;0.70;;;23.40;90.00;;;;;;4973063;28;20111;-62
2022/07/24 00:59:08;;;;;;;0.57;0.32;;;23.30;90.00;;;;;;4972934;28;20062;-62
2022/07/24 01:01:34;;;;;;;1.88;1.65;;;23.30;90.00;;;;;;4973352;28;20065;-63
2022/07/24 01:04:00;;;;;;;0.10;0.10;;;23.20;90.50;;;;;;4969232;28;20035;-62
2022/07/24 01:06:26;;;;;;;2.10;0.85;;;23.10;90.30;;;;;;4949872;28;20043;-62
2022/07/24 01:08:52;;;;;;;2.70;1.40;;;23.10;90.50;;;;;;4978208;28;20847;-62
2022/07/24 01:11:19;;;;;;;0.20;0.13;;;23.00;90.50;;;;;;4960806;28;20070;-62
2022/07/24 01:13:48;;;;;;;0.40;0.25;;;22.90;90.60;;;;;;4972808;28;20031;-62
2022/07/24 01:16:14;;;;;;;1.10;0.98;;;22.80;90.80;;;;;;4959338;28;20023;-63
2022/07/24 01:18:40;;;;;;;0.38;0.38;;;22.80;91.10;;;;;;4967962;28;20027;-62
2022/07/24 01:21:06;;;;;;;0.68;0.40;;;22.70;91.10;;;;;;4953785;29;20035;-62
2022/07/24 01:23:33;;;;;;;0.75;0.45;;;22.70;91.20;;;;;;4971210;28;20031;-62
2022/07/24 01:25:59;;;;;;;1.10;0.38;;;22.60;91.40;;;;;;4971152;28;20027;-62
2022/07/24 01:28:25;;;;;;;0.30;0.25;;;22.50;91.40;;;;;;4971711;28;20399;-62
2022/07/24 01:30:51;;;;;;;0.38;0.38;;;22.50;91.60;;;;;;4971026;28;20063;-63
2022/07/24 01:33:17;;;;;;;0.17;0.17;;;22.40;91.80;;;;;;4972287;28;20058;-63
2022/07/24 01:35:43;;;;;;;1.15;0.73;;;22.30;91.90;;;;;;4971151;28;20496;-63
2022/07/24 01:38:10;;;;;;;0.98;0.43;;;22.30;92.10;;;;;;4972570;28;20023;-62
2022/07/24 01:40:36;;;;;;;0.63;0.63;;;22.20;92.20;;;;;;4966033;28;20117;-63
2022/07/24 01:43:03;;;;;;;1.08;0.95;;;22.10;92.50;;;;;;4952333;28;20607;-63
2022/07/24 01:45:28;;;;;;;2.85;0.75;;;22.10;92.60;;;;;;4968004;28;20035;-63
2022/07/24 01:47:54;;;;;;;0.00;0.00;;;22.10;92.60;;;;;;4953408;28;20804;-62
2022/07/24 01:50:20;;;;;;;0.93;0.28;;;22.10;92.70;;;;;;4952721;28;20114;-62
2022/07/24 01:52:46;;;;;;;0.98;0.77;;;22.00;92.80;;;;;;4967029;28;20603;-62
2022/07/24 01:55:12;;;;;;;1.42;0.85;;;22.00;93.00;;;;;;4953153;29;20114;-62
2022/07/24 01:57:38;;;;;;;6.88;1.13;;;21.90;93.10;;;;;;4951794;29;20114;-62
2022/07/24 02:00:10;;;;;;;0.17;0.15;;;21.90;93.20;;;;;;4951420;28;20019;-62
2022/07/24 02:02:36;;;;;;;1.00;0.47;;;22.00;93.30;;;;;;4952716;28;20024;-62
2022/07/24 02:05:02;;;;;;;0.65;0.40;;;22.00;93.30;;;;;;4952429;29;20106;-62
2022/07/24 02:07:28;;;;;;;0.30;0.20;;;22.00;93.40;;;;;;4952470;29;20118;-62
2022/07/24 02:09:53;;;;;;;0.43;0.43;;;22.00;93.40;;;;;;4952893;28;20042;-62
2022/07/24 02:12:19;;;;;;;0.35;0.35;;;21.90;93.50;;;;;;4952702;28;20102;-62
2022/07/24 02:14:45;;;;;;;0.22;0.22;;;21.90;93.70;;;;;;4957495;28;20031;-62
2022/07/24 02:17:10;;;;;;;1.73;0.85;;;21.90;93.80;;;;;;4976210;28;20097;-62
2022/07/24 02:19:36;;;;;;;0.22;0.22;;;21.90;93.80;;;;;;4976002;28;20486;-62
2022/07/24 02:22:02;;;;;;;0.00;0.00;;;22.00;93.70;;;;;;4975400;28;20027;-62
2022/07/24 02:24:28;;;;;;;0.70;0.45;;;22.00;93.80;;;;;;4975722;28;20091;-62
2022/07/24 02:26:53;;;;;;;2.55;0.38;;;21.90;94.20;;;;;;4975960;28;20117;-62
2022/07/24 02:29:19;;;;;;;3.95;2.45;;;21.90;94.10;;;;;;4975773;28;20035;-62
2022/07/24 02:31:45;;;;;;;0.52;0.43;;;21.80;94.30;;;;;;4976201;28;20037;-63
2022/07/24 02:34:11;;;;;;;2.15;0.88;;;21.80;94.40;;;;;;4975602;28;20463;-62
2022/07/24 02:36:36;;;;;;;0.73;0.57;;;21.80;94.30;;;;;;4975822;28;20022;-62
2022/07/24 02:39:03;;;;;;;3.03;0.85;;;21.70;94.40;;;;;;4974058;28;20034;-62
2022/07/24 02:41:29;;;;;;;0.17;0.17;;;21.80;94.60;;;;;;4975731;28;20049;-62
2022/07/24 02:43:55;;;;;;;0.30;0.30;;;21.90;94.60;;;;;;4973940;28;20050;-62
2022/07/24 02:46:21;;;;;;;2.17;1.25;;;21.90;94.70;;;;;;4975710;28;20027;-62
2022/07/24 02:48:47;;;;;;;0.88;0.75;;;21.90;94.70;;;;;;4975111;28;20031;-62
2022/07/24 02:51:13;;;;;;;0.63;0.63;;;22.00;94.50;;;;;;4975853;28;20077;-62
2022/07/24 02:53:38;;;;;;;0.47;0.47;;;22.00;94.50;;;;;;4974715;28;20105;-62
2022/07/24 02:56:05;;;;;;;0.45;0.38;;;21.80;94.80;;;;;;4974351;28;20884;-62
2022/07/24 02:58:31;;;;;;;0.15;0.15;;;21.70;94.90;;;;;;4975365;28;20114;-62
2022/07/24 03:00:57;;;;;;;0.25;0.25;;;21.50;95.40;;;;;;4975236;28;20153;-62
2022/07/24 03:03:24;;;;;;;0.30;0.30;;;21.30;95.90;;;;;;4973780;28;20081;-62
2022/07/24 03:05:50;;;;;;;2.25;0.65;;;21.00;96.50;;;;;;4974415;28;20046;-62
2022/07/24 03:08:16;;;;;;;0.03;0.03;;;20.60;97.60;;;;;;4973789;28;20035;-62
2022/07/24 03:10:42;;;;;;;0.68;0.63;;;20.40;98.70;;;;;;4973791;28;20030;-62
2022/07/24 03:13:08;;;;;;;0.43;0.40;;;20.30;99.50;;;;;;4973716;28;20030;-62
2022/07/24 03:15:34;;;;;;;0.32;0.32;;;20.40;99.90;;;;;;4964546;28;20046;-62
2022/07/24 03:18:00;;;;;;;2.47;1.98;;;20.60;99.90;;;;;;4970556;28;20027;-62
2022/07/24 03:20:28;;;;;;;0.75;0.45;;;20.70;99.90;;;;;;4970566;28;20061;-62
2022/07/24 03:22:55;;;;;;;1.17;0.65;;;20.90;99.40;;;;;;4970389;28;20082;-62
2022/07/24 03:25:21;;;;;;;3.15;1.17;;;21.00;99.50;;;;;;4970150;28;20043;-63
2022/07/24 03:27:49;;;;;;;0.43;0.43;;;21.10;99.10;;;;;;4969449;28;20043;-62
2022/07/24 03:30:17;;;;;;;1.15;1.08;;;21.00;99.00;;;;;;4955533;29;20502;-63
2022/07/24 03:32:43;;;;;;;0.43;0.43;;;21.00;99.10;;;;;;4955198;29;20035;-62
2022/07/24 03:35:09;;;;;;;2.83;1.45;;;21.00;99.20;;;;;;4970481;28;20459;-62
2022/07/24 03:37:36;;;;;;;0.52;0.32;;;21.10;99.40;;;;;;4970303;28;20078;-62
2022/07/24 03:40:04;;;;;;;0.35;0.30;;;21.00;99.50;;;;;;4969625;28;20638;-62
2022/07/24 03:42:30;;;;;;;0.10;0.10;;;20.90;99.70;;;;;;4970204;28;20443;-62
2022/07/24 03:44:55;;;;;;;0.13;0.13;;;20.70;99.90;;;;;;4955330;28;20035;-63
2022/07/24 03:47:21;;;;;;;0.35;0.35;;;20.60;99.90;;;;;;4955516;29;20035;-62
2022/07/24 03:49:47;;;;;;;1.60;0.77;;;20.70;99.90;;;;;;4954582;29;20155;-62
2022/07/24 03:52:12;;;;;;;0.10;0.10;;;20.80;99.90;;;;;;4954489;29;20074;-62
2022/07/24 03:54:38;;;;;;;0.52;0.52;;;21.00;99.90;;;;;;4955121;29;20032;-62
2022/07/24 03:57:04;;;;;;;2.92;0.20;;;21.00;99.90;;;;;;4955323;28;20153;-62
2022/07/24 03:59:30;;;;;;;0.40;0.22;;;21.10;99.90;;;;;;4955009;28;20042;-62
2022/07/24 04:01:56;;;;;;;0.82;0.30;;;21.20;99.90;;;;;;4954802;29;20038;-63
2022/07/24 04:04:21;;;;;;;0.00;0.00;;;21.30;99.90;;;;;;4954529;28;20044;-63
2022/07/24 04:06:47;;;;;;;1.23;1.00;;;21.30;99.80;;;;;;4955316;29;20114;-62
2022/07/24 04:09:13;;;;;;;2.13;1.02;;;21.30;99.80;;;;;;4969172;28;20035;-62
2022/07/24 04:11:39;;;;;;;0.40;0.40;;;21.30;99.80;;;;;;4969617;28;20035;-62
2022/07/24 04:14:05;;;;;;;0.50;0.50;;;21.20;99.90;;;;;;4969509;28;20039;-62
2022/07/24 04:16:31;;;;;;;0.50;0.50;;;21.10;99.90;;;;;;4972592;28;20031;-62
2022/07/24 04:18:57;;;;;;;0.32;0.32;;;21.00;99.90;;;;;;4973948;28;20026;-62
2022/07/24 04:21:23;;;;;;;0.00;0.00;;;21.00;99.90;;;;;;4974210;28;20088;-62
2022/07/24 04:23:48;;;;;;;0.60;0.60;;;21.00;99.90;;;;;;4973337;28;20058;-62
2022/07/24 04:26:14;;;;;;;0.70;0.70;;;21.00;99.90;;;;;;4988537;28;20394;-62
2022/07/24 04:28:41;;;;;;;6.50;1.08;;;21.00;99.90;;;;;;4973219;28;20533;-62
2022/07/24 04:31:07;;;;;;;0.00;0.00;;;21.00;99.90;;;;;;4973770;28;20030;-62
2022/07/24 04:33:33;;;;;;;0.35;0.30;;;21.00;99.90;;;;;;4973200;28;20517;-62
2022/07/24 04:35:59;;;;;;;0.45;0.45;;;21.00;99.90;;;;;;4973821;28;20027;-62
2022/07/24 04:38:25;;;;;;;0.05;0.05;;;21.00;99.90;;;;;;4973762;28;20074;-62
2022/07/24 04:40:51;;;;;;;1.20;0.55;;;20.90;99.90;;;;;;4972804;28;20070;-62
2022/07/24 04:43:16;;;;;;;0.28;0.28;;;21.00;99.90;;;;;;4973098;28;20065;-62
2022/07/24 04:45:42;;;;;;;1.33;0.93;;;21.00;99.90;;;;;;4973437;28;20070;-62
2022/07/24 04:48:08;;;;;;;0.65;0.52;;;21.10;99.90;;;;;;4973580;28;20396;-62
2022/07/24 04:50:34;;;;;;;1.45;0.88;;;21.20;99.90;;;;;;4973252;28;20039;-62
2022/07/24 04:52:59;;;;;;;0.40;0.40;;;21.30;99.90;;;;;;4973070;28;20065;-62
2022/07/24 04:55:25;;;;;;;0.38;0.32;;;21.40;99.90;;;;;;4971870;28;20534;-62
2022/07/24 04:57:51;;;;;;;0.20;0.20;;;21.50;99.80;;;;;;4971941;28;20119;-62
2022/07/24 05:00:17;;;;;;;0.22;0.22;;;21.50;99.80;;;;;;4972291;28;20041;-62
2022/07/24 05:02:42;;;;;;;0.30;0.28;;;21.30;99.90;;;;;;4970675;28;20035;-63
2022/07/24 05:05:08;;;;;;;0.60;0.60;;;20.90;99.90;;;;;;4972047;28;20030;-62
2022/07/24 05:07:34;;;;;;;1.05;0.95;;;20.70;99.90;;;;;;4973207;28;20035;-63
2022/07/24 05:10:00;;;;;;;0.30;0.30;;;20.70;99.90;;;;;;4987689;28;20112;-62
2022/07/24 05:12:26;;;;;;;0.45;0.45;;;20.30;99.90;;;;;;4955178;28;20499;-62
2022/07/24 05:14:52;;;;;;;0.57;0.40;;;20.40;99.90;;;;;;4966561;28;20035;-62
2022/07/24 05:17:18;;;;;;;4.07;1.48;;;20.50;99.90;;;;;;4953555;29;20054;-63
2022/07/24 05:19:44;;;;;;;0.45;0.38;;;20.70;99.90;;;;;;4953475;28;20031;-63
2022/07/24 05:22:09;;;;;;;0.77;0.77;;;20.80;99.90;;;;;;4953209;29;20141;-63
2022/07/24 05:24:35;;;;;;;0.30;0.30;;;20.90;99.90;;;;;;4953222;29;20047;-63
2022/07/24 05:27:01;;;;;;;0.52;0.45;;;21.20;99.90;;;;;;4953820;28;20032;-63
2022/07/24 05:29:27;;;;;;;1.25;0.80;;;21.10;99.90;;;;;;4952851;28;20035;-64
2022/07/24 05:31:54;;;;;;;0.43;0.43;;;21.10;99.90;;;;;;4953452;28;20488;-67
2022/07/24 05:34:23;;;;;;;0.70;0.70;;;21.00;99.90;;;;;;4967868;28;20039;-67
2022/07/24 05:36:49;;;;;;;0.10;0.10;;;21.00;99.90;;;;;;4968282;28;20031;-67
2022/07/24 05:39:15;;;;;;;0.88;0.55;;;20.80;99.90;;;;;;4952864;29;20031;-67
2022/07/24 05:41:41;;;;;;;3.33;0.77;;;20.90;99.90;;;;;;4953023;28;20503;-67
2022/07/24 05:44:07;;;;;;;0.75;0.75;;;21.00;99.90;;;;;;4967404;28;20400;-67
2022/07/24 05:46:33;;;;;;;3.92;0.80;;;21.00;99.90;;;;;;4952769;28;20058;-67
2022/07/24 05:48:58;;;;;;;0.15;0.15;;;20.90;99.90;;;;;;4952909;29;20031;-67
2022/07/24 05:51:25;;;;;;;0.03;0.03;;;21.00;99.90;;;;;;4954706;28;20037;-67
2022/07/24 05:53:51;;;;;;;0.65;0.55;;;21.00;99.90;;;;;;4968324;28;20513;-67
2022/07/24 05:56:17;;;;;;;0.30;0.22;;;21.10;99.90;;;;;;4970949;28;20060;-67
2022/07/24 05:58:43;;;;;;;0.88;0.70;;;21.10;99.90;;;;;;4970545;28;20427;-67
2022/07/24 06:01:08;;;;;;;0.10;0.10;;;21.20;99.90;;;;;;4966663;28;20031;-69
2022/07/24 06:03:34;;;;;;;0.10;0.10;;;21.00;99.90;;;;;;4935059;29;20039;-69
2022/07/24 06:06:00;;;;;;;0.10;0.10;;;21.20;99.90;;;;;;4953116;28;20050;-69
2022/07/24 06:08:26;;;;;;;4.20;0.35;;;21.10;99.90;;;;;;4967868;28;20176;-69
2022/07/24 06:10:52;;;;;;;0.30;0.30;;;21.30;99.90;;;;;;4952512;28;20480;-70
2022/07/24 06:13:18;;;;;;;0.20;0.20;;;21.40;99.90;;;;;;4967554;28;20038;-69
2022/07/24 06:15:43;;;;;;;1.20;0.90;;;21.30;99.90;;;;;;4967756;28;20027;-69
2022/07/24 06:18:09;;;;;;;0.77;0.47;;;21.40;99.90;;;;;;4953257;28;20066;-69
2022/07/24 06:20:35;;;;;;;0.17;0.17;;;21.50;99.90;;;;;;4952755;29;20035;-69
2022/07/24 06:23:00;;;;;;;0.88;0.85;;;21.60;99.90;;;;;;4967284;28;20031;-69
2022/07/24 06:25:26;;;;;;;1.45;0.90;;;21.60;99.90;;;;;;4952759;28;20042;-69
2022/07/24 06:27:53;;;;;;;0.80;0.75;;;21.60;99.90;;;;;;4967635;28;20060;-68
2022/07/24 06:30:26;;;;;;;2.92;1.38;;;21.80;99.90;;;;;;4951071;29;20401;-69
2022/07/24 06:32:58;;;;;;;0.85;0.47;;;21.90;99.90;;;;;;4967250;28;20051;-68
2022/07/24 06:35:25;;;;;;;0.10;0.10;;;21.90;99.90;;;;;;4967063;28;20031;-68
2022/07/24 06:37:51;;;;;;;0.70;0.63;;;22.00;99.90;;;;;;4967264;28;20027;-69
2022/07/24 06:40:18;;;;;;;0.40;0.40;;;22.10;99.90;;;;;;4952082;28;20503;-63
2022/07/24 06:42:47;;;;;;;0.65;0.40;;;22.10;99.90;;;;;;4952454;29;20090;-64
2022/07/24 06:45:13;;;;;;;0.43;0.43;;;22.30;99.90;;;;;;4967491;28;20032;-64
2022/07/24 06:47:40;;;;;;;0.13;0.13;;;22.30;99.60;;;;;;4967205;28;20032;-64
2022/07/24 06:50:07;;;;;;;1.00;0.85;;;22.40;99.60;;;;;;4952436;28;20487;-64
2022/07/24 06:52:33;;;;;;;0.70;0.70;;;22.40;99.60;;;;;;4952239;29;20035;-64
2022/07/24 06:54:59;;;;;;;0.73;0.60;;;22.50;99.40;;;;;;4952637;29;20038;-65
2022/07/24 06:57:25;;;;;;;1.75;1.00;;;22.60;99.20;;;;;;4952468;29;20382;-65
2022/07/24 06:59:52;;;;;;;1.55;1.15;;;22.70;99.20;;;;;;4967079;28;20035;-65
2022/07/24 07:02:20;;;;;;;0.70;0.70;;;22.70;99.10;;;;;;4951791;28;20039;-64
2022/07/24 07:04:46;;;;;;;0.65;0.43;;;22.50;99.30;;;;;;4956292;29;20110;-64
2022/07/24 07:07:12;;;;;;;0.52;0.40;;;22.60;99.40;;;;;;4956051;29;20090;-64
2022/07/24 07:09:37;;;;;;;0.43;0.43;;;22.70;99.50;;;;;;4955220;29;20031;-64
2022/07/24 07:12:04;;;;;;;1.83;1.40;;;22.70;99.40;;;;;;4955586;29;20067;-64
2022/07/24 07:14:30;;;;;;;0.82;0.25;;;22.90;99.00;;;;;;4955172;29;20071;-66
2022/07/24 07:16:56;;;;;;;0.40;0.40;;;23.00;98.70;;;;;;4955281;28;20023;-64
2022/07/24 07:19:22;;;;;;;0.20;0.20;;;23.00;99.10;;;;;;4953189;28;20038;-64
2022/07/24 07:21:48;;;;;;;0.65;0.65;;;22.90;98.70;;;;;;4949291;29;20042;-64
2022/07/24 07:24:14;;;;;;;0.63;0.63;;;23.10;98.90;;;;;;4954875;28;20429;-65
2022/07/24 07:26:40;;;;;;;0.65;0.65;;;23.30;98.80;;;;;;4955436;28;20458;-66
2022/07/24 07:29:05;;;;;;;0.32;0.32;;;23.30;97.70;;;;;;4942458;28;20039;-66
2022/07/24 07:31:31;;;;;;;0.20;0.20;;;23.40;97.90;;;;;;4951063;29;20036;-66
2022/07/24 07:33:57;;;;;;;0.30;0.30;;;23.50;97.80;;;;;;4950491;29;20035;-65
2022/07/24 07:36:24;;;;;;;0.43;0.43;;;23.60;97.70;;;;;;4950608;29;20024;-66
2022/07/24 07:38:50;;;;;;;1.55;1.20;;;23.70;97.50;;;;;;4950257;29;20063;-65
2022/07/24 07:41:19;;;;;;;0.60;0.60;;;23.50;97.70;;;;;;4935537;29;20380;-66
2022/07/24 07:43:47;;;;;;;1.17;0.45;;;23.60;97.70;;;;;;4949888;29;20499;-65
2022/07/24 07:46:13;;;;;;;1.38;0.95;;;23.70;97.50;;;;;;4935777;29;20043;-67
2022/07/24 07:48:40;;;;;;;11.73;1.33;;;23.90;97.30;;;;;;4935504;29;20384;-66
2022/07/24 07:51:06;;;;;;;0.47;0.45;;;23.90;96.70;;;;;;4967341;28;20076;-66
2022/07/24 07:53:31;;;;;;;2.75;2.20;;;23.90;96.90;;;;;;4973743;28;20493;-65
2022/07/24 07:55:57;;;;;;;2.50;1.42;;;24.00;96.70;;;;;;4973369;28;20038;-66
2022/07/24 07:58:23;;;;;;;0.73;0.73;;;24.20;96.80;;;;;;4973712;28;20027;-65
2022/07/24 08:00:49;;;;;;;1.38;1.20;;;24.50;96.20;;;;;;4988476;28;20153;-65
2022/07/24 08:03:15;;;;;;;0.28;0.28;;;24.70;95.60;;;;;;4963809;28;20038;-65
2022/07/24 08:05:41;;;;;;;0.50;0.43;;;24.60;95.30;;;;;;4958259;28;20039;-66
2022/07/24 08:08:07;;;;;;;3.50;0.85;;;24.60;95.00;;;;;;4954810;29;20833;-65
2022/07/24 08:10:32;;;;;;;0.65;0.40;;;24.60;95.20;;;;;;4954395;29;20031;-65
2022/07/24 08:12:58;;;;;;;0.98;0.88;;;24.70;94.80;;;;;;4954135;28;20047;-65
2022/07/24 08:15:24;;;;;;;30.30;1.52;;;24.60;94.40;;;;;;4954359;28;20079;-65
2022/07/24 08:17:58;;;;;;;0.85;0.40;;;24.70;94.60;;;;;;4954608;28;20586;-66
2022/07/24 08:20:26;;;;;;;1.02;0.95;;;24.80;94.30;;;;;;4962258;28;20487;-65
2022/07/24 08:22:52;;;;;;;0.65;0.43;;;24.90;94.20;;;;;;4972445;28;20034;-67
2022/07/24 08:25:18;;;;;;;0.63;0.52;;;25.00;93.80;;;;;;4973601;28;20038;-65
2022/07/24 08:27:44;;;;;;;0.75;0.60;;;25.10;93.90;;;;;;4973788;28;20037;-66
2022/07/24 08:30:11;;;;;;;2.22;2.00;;;25.10;93.40;;;;;;4971852;28;20118;-67
2022/07/24 08:32:38;;;;;;;4.50;1.02;;;25.10;93.60;;;;;;4971919;28;20483;-65
2022/07/24 08:35:05;;;;;;;2.17;1.17;;;25.10;93.30;;;;;;4971978;28;20035;-66
2022/07/24 08:37:39;;;;;;;9.75;1.63;;;25.20;93.70;;;;;;4956448;28;20037;-64
2022/07/24 08:40:08;;;;;;;1.23;1.00;;;25.30;93.60;;;;;;4973399;28;20123;-66
2022/07/24 08:42:35;;;;;;;0.98;0.90;;;25.30;93.40;;;;;;4973241;28;20027;-65
2022/07/24 08:45:03;;;;;;;0.52;0.52;;;25.50;93.20;;;;;;4972052;28;20073;-65
2022/07/24 08:47:32;;;;;;;0.28;0.28;;;25.60;93.60;;;;;;4972088;28;20050;-65
2022/07/24 08:49:59;;;;;;;0.22;0.22;;;25.60;92.90;;;;;;4967962;28;20034;-64
2022/07/24 08:52:26;;;;;;;1.35;0.95;;;25.30;93.40;;;;;;4973269;28;20039;-64
2022/07/24 08:54:52;;;;;;;0.47;0.47;;;25.30;93.50;;;;;;4973032;28;20033;-64
2022/07/24 08:57:19;;;;;;;1.35;1.08;;;25.50;93.40;;;;;;4971894;28;20023;-64
2022/07/24 08:59:45;;;;;;;2.55;1.08;;;25.60;93.30;;;;;;4971843;28;20030;-64
2022/07/24 09:02:11;;;;;;;0.35;0.22;;;25.80;93.20;;;;;;4971631;28;20042;-64
2022/07/24 09:04:49;;;;;;;0.80;0.60;;;25.70;92.90;;;;;;4970992;28;20109;-64
2022/07/24 09:07:19;;;;;;;0.57;0.55;;;25.80;93.10;;;;;;4972676;28;20034;-64
2022/07/24 09:10:17;;;;;;;0.65;0.52;;;25.80;92.90;;;;;;4970616;28;20031;-65
2022/07/24 09:12:46;;;;;;;0.30;0.20;;;25.90;93.00;;;;;;4971845;28;20046;-65
2022/07/24 09:15:14;;;;;;;0.82;0.55;;;25.90;93.00;;;;;;4972501;28;20062;-66
2022/07/24 09:17:57;;;;;;;3.25;0.90;;;26.20;92.70;;;;;;4972353;28;20035;-66
2022/07/24 09:20:27;;;;;;;0.55;0.30;;;26.40;92.50;;;;;;4941460;28;20031;-66
2022/07/24 09:22:56;;;;;;;1.05;0.90;;;26.30;92.30;;;;;;4968081;28;20023;-65
2022/07/24 09:25:29;;;;;;;0.77;0.77;;;26.60;92.50;;;;;;4963163;28;20042;-65
2022/07/24 09:28:03;;;;;;;3.92;0.98;;;26.80;92.20;;;;;;4959093;28;20039;-66
2022/07/24 09:30:41;;;;;;;0.57;0.50;;;26.90;91.80;;;;;;4933458;29;20047;-68
2022/07/24 09:33:13;;;;;;;23.15;0.98;;;27.00;91.70;;;;;;4932644;29;20043;-68
2022/07/24 09:35:41;;;;;;;0.28;0.20;;;27.00;91.70;;;;;;4932752;29;20047;-69
2022/07/24 09:38:11;;;;;;;0.52;0.30;;;27.00;91.30;;;;;;4932749;29;20036;-69
2022/07/24 09:40:46;;;;;;;1.13;0.30;;;27.10;91.20;;;;;;4932007;29;20504;-68
2022/07/24 09:43:26;;;;;;;2.35;0.88;;;27.30;91.00;;;;;;4933120;29;20031;-68
2022/07/24 09:46:08;;;;;;;2.40;2.15;;;27.40;91.20;;;;;;4932844;29;20488;-69
2022/07/24 09:48:57;;;;;;;0.25;0.25;;;27.50;90.60;;;;;;4932721;29;20099;-69
2022/07/24 09:51:25;;;;;;;1.08;0.65;;;27.60;91.00;;;;;;4964778;28;20046;-68
2022/07/24 09:53:57;;;;;;;1.92;1.50;;;27.80;90.40;;;;;;4937818;28;20043;-69
2022/07/24 09:56:24;;;;;;;1.10;1.00;;;28.00;90.40;;;;;;4963870;28;20491;-67
2022/07/24 09:58:54;;;;;;;1.65;0.77;;;28.10;89.80;;;;;;4972209;28;20121;-67
2022/07/24 10:01:25;;;;;;;1.05;0.88;;;28.00;89.80;;;;;;4971437;28;20526;-67
2022/07/24 10:03:53;;;;;;;1.33;0.57;;;28.10;89.60;;;;;;4971678;28;20035;-68
2022/07/24 10:06:25;;;;;;;1.73;1.13;;;28.10;90.00;;;;;;4970700;28;20035;-69
2022/07/24 10:08:55;;;;;;;0.50;0.45;;;28.20;89.70;;;;;;4970643;28;20035;-70
2022/07/24 10:11:21;;;;;;;;;;;28.40;89.30;;;;;;4971767;28;20043;-68
2022/07/24 10:13:47;;;;;;;;;;;28.70;88.50;;;;;;4945186;28;19921;-68
2022/07/24 10:16:13;;;;;;;;;;;28.50;88.20;;;;;;4972049;28;19914;-68
2022/07/24 10:18:55;;;;;;;;;;;28.80;87.40;;;;;;4971899;28;20430;-68
2022/07/24 10:21:28;;;;;;;;;;;28.90;86.90;;;;;;4972588;28;19914;-68
2022/07/24 10:24:03;;;;;;;;;;;29.00;87.30;;;;;;4971971;28;19914;-69
2022/07/24 10:26:36;;;;;;;;;;;29.00;86.30;;;;;;4971257;28;19910;-67
2022/07/24 10:29:23;;;;;;;;;;;29.00;85.60;;;;;;4970645;28;20284;-68
2022/07/24 10:31:54;;;;;;;;;;;29.00;84.70;;;;;;4971048;28;20313;-69
2022/07/24 10:34:42;;;;;;;;;;;29.20;85.70;;;;;;4970837;28;19918;-69
2022/07/24 10:37:16;;;;;;;;;;;29.40;85.00;;;;;;4973811;28;19910;-69
2022/07/24 10:39:58;;;;;;;;;;;29.60;84.50;;;;;;4974863;28;19910;-69
2022/07/24 10:42:24;;;;;;;;;;;29.20;83.30;;;;;;4974243;28;20001;-69
2022/07/24 10:45:18;;;;;;;;;;;29.50;83.60;;;;;;4975269;28;19996;-68
2022/07/24 10:47:45;;;;;;;;;;;29.60;83.80;;;;;;4975763;28;19953;-69
2022/07/24 10:50:14;;;;;;;;;;;29.10;83.10;;;;;;4973570;28;19921;-68
2022/07/24 10:52:41;;;;;;;;;;;29.10;83.70;;;;;;4975659;28;19957;-69
2022/07/24 10:55:28;;;;;;;;;;;29.50;82.40;;;;;;4974778;28;19914;-68
2022/07/24 10:58:03;;;;;;;;;;;29.80;82.60;;;;;;4947431;28;19914;-68
2022/07/24 11:00:36;;;;;;;;;;;29.90;81.80;;;;;;4970007;28;19969;-67
2022/07/24 11:03:05;;;;;;;;;;;30.00;81.00;;;;;;4955048;28;19968;-67
2022/07/24 11:05:34;;;;;;;;;;;30.20;81.00;;;;;;4955587;28;19919;-67
2022/07/24 11:08:24;;;;;;;;;;;30.00;80.20;;;;;;4954837;29;19921;-67
2022/07/24 11:10:52;;;;;;;;;;;30.30;80.80;;;;;;4919392;28;20421;-67
2022/07/24 11:13:45;;;;;;;;;;;30.60;79.30;;;;;;4953531;29;19910;-67
2022/07/24 11:16:11;;;;;;;;;;;30.30;80.70;;;;;;4952875;29;20318;-67
2022/07/24 11:18:59;;;;;;;;;;;30.80;78.30;;;;;;4955338;28;19910;-67
2022/07/24 11:21:36;;;;;;;;;;;31.10;77.50;;;;;;4971927;28;19914;-67
2022/07/24 11:24:14;;;;;;;;;;;30.80;76.00;;;;;;4950374;29;20259;-67
2022/07/24 11:26:43;;;;;;;;;;;31.10;75.50;;;;;;4955181;28;19914;-67
2022/07/24 11:29:26;;;;;;;;;;;31.10;77.00;;;;;;4955184;28;19973;-67
2022/07/24 11:32:01;;;;;;;;;;;31.30;77.80;;;;;;4965668;28;19918;-66
2022/07/24 11:34:28;;;;;;;;;;;31.10;75.30;;;;;;4964336;28;19921;-66
2022/07/24 11:36:56;;;;;;;;;;;30.90;75.80;;;;;;4955612;28;19913;-67
2022/07/24 11:39:49;;;;;;;;;;;30.80;75.80;;;;;;4955097;28;19910;-66
2022/07/24 11:42:16;;;;;;;;;;;30.90;76.10;;;;;;4952601;28;19969;-67
2022/07/24 11:44:44;;;;;;;;;;;30.60;75.30;;;;;;4953773;28;19953;-67
2022/07/24 11:47:16;;;;;;;;;;;31.20;74.90;;;;;;4953388;28;19914;-67
2022/07/24 11:49:54;;;;;;;;;;;31.20;74.30;;;;;;4957239;28;19944;-67
2022/07/24 11:52:26;;;;;;;;;;;31.50;74.30;;;;;;4956788;28;20294;-67
2022/07/24 11:54:54;;;;;;;;;;;31.60;74.70;;;;;;4954193;28;20344;-67
2022/07/24 11:57:26;;;;;;;;;;;31.90;73.80;;;;;;4955775;28;20005;-67
2022/07/24 11:59:55;;;;;;;;;;;32.00;72.70;;;;;;4954588;28;20382;-68
2022/07/24 12:02:22;;;;;;;;;;;32.50;71.60;;;;;;4953454;29;19919;-68
2022/07/24 12:04:49;;;;;;;;;;;32.40;71.80;;;;;;4954264;28;19915;-67
2022/07/24 12:07:23;;;;;;;;;;;32.20;71.90;;;;;;4955428;28;19910;-67
2022/07/24 12:09:53;;;;;;;;;;;31.90;71.50;;;;;;4954498;28;19953;-66
2022/07/24 12:12:21;;;;;;;;;;;32.40;70.90;;;;;;4953061;29;19942;-67
2022/07/24 12:14:47;;;;;;;;;;;32.50;67.40;;;;;;4954437;28;19918;-67
2022/07/24 12:17:13;;;;;;;;;;;32.10;69.50;;;;;;4954532;28;19994;-67
2022/07/24 12:19:38;;;;;;;;;;;32.30;68.30;;;;;;4955374;28;19957;-67
2022/07/24 12:22:04;;;;;;;;;;;32.20;68.60;;;;;;4973026;28;20696;-69
2022/07/24 12:24:30;;;;;;;;;;;32.70;69.30;;;;;;4972023;28;20298;-68
2022/07/24 12:26:59;;;;;;;;;;;32.90;67.00;;;;;;4974000;28;19918;-68
2022/07/24 12:29:26;;;;;;;;;;;32.80;67.40;;;;;;4971731;28;20302;-69
2022/07/24 12:32:12;;;;;;;;;;;32.70;66.90;;;;;;4972236;28;19910;-69
2022/07/24 12:34:45;;;;;;;;;;;32.50;65.60;;;;;;4971924;28;19921;-69
2022/07/24 12:37:18;;;;;;;;;;;32.50;66.60;;;;;;4972348;28;20065;-68
2022/07/24 12:39:48;;;;;;;;;;;32.60;67.00;;;;;;4972956;28;19910;-68
2022/07/24 12:42:14;;;;;;;;;;;32.90;64.30;;;;;;4950909;28;19915;-69
2022/07/24 12:44:45;;;;;;;;;;;32.70;64.20;;;;;;4959171;28;20417;-69
2022/07/24 12:47:12;;;;;;;;;;;33.20;65.30;;;;;;4967317;28;19913;-69
2022/07/24 12:49:42;;;;;;;;;;;33.70;63.30;;;;;;4973304;28;20263;-68
2022/07/24 12:52:24;;;;;;;;;;;33.10;63.10;;;;;;4955897;28;19911;-68
2022/07/24 12:54:50;;;;;;;;;;;32.90;64.00;;;;;;4954182;28;20032;-68
2022/07/24 12:57:19;;;;;;;;;;;32.80;63.90;;;;;;4969146;28;19910;-68
2022/07/24 12:59:46;;;;;;;;;;;32.80;62.70;;;;;;4952854;28;19956;-68
2022/07/24 13:02:22;;;;;;;;;;;33.40;62.80;;;;;;4952322;28;19917;-67
2022/07/24 13:04:51;;;;;;;;;;;33.80;62.10;;;;;;4953943;28;20366;-67
2022/07/24 13:07:19;;;;;;;;;;;33.00;61.60;;;;;;4954148;28;20013;-67
2022/07/24 13:09:44;;;;;;;;;;;33.30;61.10;;;;;;4968769;28;20400;-67